الصفحة الرئيسية
METAR-TAF:

METAR-TAF

مطار :

القيروان, تونس

دائرة عرض: 35-40N, خط طول: 010-06E, ارتفاع: 60 متر

مراقبة الطقس الحالي

تاريخ ووقت الإصدار 1ساعة و 1 دقيقة قبل الساعة 09:00UTC
ريح 4 عقدة من الشمال
درجة الحرارة 15°درجة مئوية
الرطوبة 72%
ضغط 1018 hPa
الرؤية: 8000 متر
غيوم متفرقة على ارتفاع 2300 قدم

METAR: DTTK 220900Z 01004KT 8000 SCT023 15/10 Q1018

زمن: 11:01 (10:01 UTC)


TAF: مفقودة

أرصاد الطقس والتوقعات من أكثر من 4000 مطار (تقارير الطقس للمطار METAR والتنبؤ بالطقس بالمطارTAF).

المحطات المتاحة هي النقط الصفراء والحمراء على الخريطة.

حرك المؤشر فوق النقطة لمعرفة اسم المحطة.

ثم انقر لمعرفة أرصاد وتوقعات الطقس.

لتغيير الخارطة: اضغط على الأزرار الخضراء مع رمز الصليب الأسود للتكبير. على الزر الأخضر مع شرطة للتصغير، أو على الأسهم الخضراء للخرائط المجاورة.


METAR-TAF: